createdAt,value
2024-02-21T00:00:03.899Z,326.27
2024-02-21T00:02:30.263Z,325.13
2024-02-21T00:04:56.717Z,323.75
2024-02-21T00:07:23.816Z,326.92
2024-02-21T00:09:50.290Z,325.55
2024-02-21T00:12:16.833Z,320.02
2024-02-21T00:14:43.267Z,321.15
2024-02-21T00:17:09.640Z,316.67
2024-02-21T00:19:36.570Z,317.00
2024-02-21T00:22:02.993Z,322.65
2024-02-21T00:24:29.346Z,321.38
2024-02-21T00:26:55.828Z,325.38
2024-02-21T00:29:22.250Z,324.95
2024-02-21T00:31:50.330Z,323.40
2024-02-21T00:34:17.033Z,325.08
2024-02-21T00:36:43.569Z,326.35
2024-02-21T00:39:10.097Z,330.52
2024-02-21T00:41:36.499Z,325.98
2024-02-21T00:44:03.024Z,324.38
2024-02-21T00:46:29.860Z,327.60
2024-02-21T00:48:56.319Z,324.08
2024-02-21T00:51:22.725Z,326.67
2024-02-21T00:53:49.129Z,328.00
2024-02-21T00:56:15.499Z,324.23
2024-02-21T00:58:42.034Z,315.13
2024-02-21T01:01:08.522Z,314.33
2024-02-21T01:03:34.933Z,315.27
2024-02-21T01:06:01.407Z,324.80
2024-02-21T01:08:27.843Z,318.58
2024-02-21T01:10:54.311Z,319.88
2024-02-21T01:13:20.792Z,323.92
2024-02-21T01:15:47.285Z,323.88
2024-02-21T01:18:13.771Z,322.70
2024-02-21T01:20:40.237Z,323.92
2024-02-21T01:23:06.629Z,322.15
2024-02-21T01:25:33.148Z,323.65
2024-02-21T01:27:59.558Z,325.38
2024-02-21T01:30:25.941Z,323.33
2024-02-21T01:32:52.327Z,325.80
2024-02-21T01:35:19.407Z,324.38
2024-02-21T01:37:45.982Z,323.13
2024-02-21T01:40:12.851Z,322.42
2024-02-21T01:42:40.829Z,325.70
2024-02-21T01:45:07.459Z,321.10
2024-02-21T01:47:34.227Z,321.25
2024-02-21T01:50:00.915Z,321.98
2024-02-21T01:52:27.444Z,318.55
2024-02-21T01:54:53.880Z,326.38
2024-02-21T01:57:20.314Z,326.42
2024-02-21T01:59:47.359Z,322.55
2024-02-21T02:02:14.514Z,324.98
2024-02-21T02:04:41.126Z,318.38
2024-02-21T02:07:08.000Z,313.17
2024-02-21T02:09:34.904Z,312.48
2024-02-21T02:12:01.629Z,312.42
2024-02-21T02:14:28.101Z,310.50
2024-02-21T02:16:54.508Z,314.15
2024-02-21T02:19:21.162Z,315.42
2024-02-21T02:21:54.516Z,311.27
2024-02-21T02:24:21.519Z,314.02
2024-02-21T02:26:47.917Z,312.92
2024-02-21T02:29:14.320Z,311.95
2024-02-21T02:31:41.139Z,310.08
2024-02-21T02:34:07.671Z,310.92
2024-02-21T02:36:34.894Z,313.20
2024-02-21T02:39:01.304Z,311.25
2024-02-21T02:41:27.832Z,310.48
2024-02-21T02:43:54.308Z,315.58
2024-02-21T02:46:20.829Z,312.70
2024-02-21T02:48:47.343Z,315.38
2024-02-21T02:51:13.772Z,315.77
2024-02-21T02:53:40.184Z,311.27
2024-02-21T02:56:06.646Z,312.58
2024-02-21T02:58:33.149Z,312.83
2024-02-21T03:00:59.552Z,313.05
2024-02-21T03:03:26.023Z,316.35
2024-02-21T03:05:52.453Z,311.17
2024-02-21T03:08:18.920Z,309.25
2024-02-21T03:10:45.595Z,307.70
2024-02-21T03:13:12.186Z,312.92
2024-02-21T03:15:38.656Z,311.88
2024-02-21T03:18:05.254Z,311.35
2024-02-21T03:20:31.686Z,310.25
2024-02-21T03:22:58.153Z,309.95
2024-02-21T03:25:24.619Z,308.73
2024-02-21T03:27:51.050Z,314.00
2024-02-21T03:30:17.511Z,322.02
2024-02-21T03:32:43.917Z,322.00
2024-02-21T03:35:10.662Z,319.77
2024-02-21T03:37:37.099Z,322.33
2024-02-21T03:40:04.067Z,321.00
2024-02-21T03:42:32.541Z,319.80
2024-02-21T03:45:01.908Z,321.98
2024-02-21T03:47:28.359Z,322.13
2024-02-21T03:49:54.899Z,322.17
2024-02-21T03:52:21.542Z,320.58
2024-02-21T03:54:47.935Z,319.42
2024-02-21T03:57:14.331Z,318.83
2024-02-21T03:59:44.442Z,315.65
2024-02-21T04:02:11.419Z,318.88
2024-02-21T04:04:41.152Z,320.67
2024-02-21T04:07:07.973Z,321.85
2024-02-21T04:09:34.693Z,320.60
2024-02-21T04:12:01.838Z,315.90
2024-02-21T04:14:28.233Z,318.08
2024-02-21T04:16:54.864Z,317.63
2024-02-21T04:19:21.491Z,316.98
2024-02-21T04:21:47.979Z,313.67
2024-02-21T04:24:14.324Z,304.40
2024-02-21T04:26:41.673Z,307.00
2024-02-21T04:29:08.653Z,311.63
2024-02-21T04:31:35.479Z,310.83
2024-02-21T04:34:02.010Z,309.45
2024-02-21T04:36:28.456Z,306.50
2024-02-21T04:38:54.830Z,312.85
2024-02-21T04:41:21.273Z,313.58
2024-02-21T04:43:49.055Z,306.58
2024-02-21T04:46:16.609Z,314.15
2024-02-21T04:48:43.018Z,301.25
2024-02-21T04:51:09.482Z,303.85
2024-02-21T04:53:35.942Z,300.00
2024-02-21T04:56:02.537Z,300.17
2024-02-21T04:58:29.127Z,300.17
2024-02-21T05:00:56.267Z,302.05
2024-02-21T05:03:23.068Z,297.35
2024-02-21T05:05:49.794Z,297.55
2024-02-21T05:08:16.477Z,296.92
2024-02-21T05:10:43.474Z,301.50
2024-02-21T05:13:10.170Z,297.20
2024-02-21T05:15:36.603Z,295.88
2024-02-21T05:18:03.435Z,297.38
2024-02-21T05:20:29.928Z,296.05
2024-02-21T05:22:56.520Z,296.67
2024-02-21T05:25:22.998Z,294.92
2024-02-21T05:27:53.359Z,297.13
2024-02-21T05:30:19.793Z,297.35
2024-02-21T05:32:46.214Z,297.73
2024-02-21T05:35:12.703Z,294.98
2024-02-21T05:37:39.697Z,297.38
2024-02-21T05:40:06.443Z,293.60
2024-02-21T05:42:33.336Z,296.58
2024-02-21T05:44:59.834Z,290.63
2024-02-21T05:47:26.344Z,298.85
2024-02-21T05:49:55.426Z,297.65
2024-02-21T05:52:21.974Z,296.63
2024-02-21T05:54:50.883Z,297.63
2024-02-21T05:57:21.180Z,296.38
2024-02-21T05:59:47.616Z,300.58
2024-02-21T06:02:14.435Z,295.48
2024-02-21T06:04:41.295Z,295.02
2024-02-21T06:07:07.864Z,292.60
2024-02-21T06:09:34.360Z,295.42
2024-02-21T06:12:00.817Z,294.15
2024-02-21T06:14:27.237Z,296.70
2024-02-21T06:16:53.681Z,294.85
2024-02-21T06:19:20.235Z,293.15
2024-02-21T06:21:46.794Z,293.65
2024-02-21T06:24:13.802Z,296.13
2024-02-21T06:26:41.456Z,293.30
2024-02-21T06:29:07.859Z,292.38
2024-02-21T06:31:34.821Z,290.15
2024-02-21T06:34:01.555Z,291.40
2024-02-21T06:36:28.008Z,293.38
2024-02-21T06:38:54.586Z,296.73
2024-02-21T06:41:21.163Z,296.27
2024-02-21T06:43:48.534Z,295.30
2024-02-21T06:46:29.577Z,294.80
2024-02-21T06:48:58.075Z,295.42
2024-02-21T06:51:26.180Z,292.15
2024-02-21T06:53:52.796Z,292.13
2024-02-21T06:56:19.319Z,294.60
2024-02-21T06:58:45.784Z,288.23
2024-02-21T07:01:12.565Z,291.98
2024-02-21T07:03:39.189Z,292.92
2024-02-21T07:06:05.958Z,293.13
2024-02-21T07:08:32.543Z,291.05
2024-02-21T07:10:59.075Z,292.23
2024-02-21T07:13:25.596Z,292.60
2024-02-21T07:15:52.024Z,294.50
2024-02-21T07:18:18.577Z,294.40
2024-02-21T07:20:45.076Z,297.08
2024-02-21T07:23:11.500Z,295.27
2024-02-21T07:25:37.973Z,293.60
2024-02-21T07:28:04.613Z,294.90
2024-02-21T07:30:31.074Z,289.45
2024-02-21T07:32:57.540Z,295.30
2024-02-21T07:35:24.053Z,296.02
2024-02-21T07:37:50.560Z,293.25
2024-02-21T07:40:17.761Z,295.20
2024-02-21T07:42:46.929Z,297.20
2024-02-21T07:45:15.259Z,295.08
2024-02-21T07:47:41.701Z,293.88
2024-02-21T07:50:08.641Z,294.63
2024-02-21T07:52:35.275Z,296.27
2024-02-21T07:55:01.755Z,295.55
2024-02-21T07:57:28.168Z,298.30
2024-02-21T07:59:55.124Z,295.55
2024-02-21T08:02:24.321Z,294.95
2024-02-21T08:04:50.897Z,298.33
2024-02-21T08:07:17.446Z,297.00
2024-02-21T08:09:43.850Z,295.70
2024-02-21T08:12:10.342Z,292.13
2024-02-21T08:14:37.977Z,296.58
2024-02-21T08:17:05.110Z,296.58
2024-02-21T08:19:31.803Z,298.98
2024-02-21T08:21:58.262Z,299.33
2024-02-21T08:24:24.698Z,296.38
2024-02-21T08:26:51.148Z,295.88
2024-02-21T08:29:17.643Z,297.00
2024-02-21T08:31:44.128Z,298.65
2024-02-21T08:34:10.623Z,297.70
2024-02-21T08:36:37.445Z,294.27
2024-02-21T08:39:07.311Z,298.90
2024-02-21T08:41:47.351Z,297.88
2024-02-21T08:44:20.520Z,297.52
2024-02-21T08:46:48.413Z,296.85
2024-02-21T08:49:15.022Z,299.48
2024-02-21T08:51:41.974Z,297.95
2024-02-21T08:54:09.010Z,295.95
2024-02-21T08:56:36.266Z,297.83
2024-02-21T08:59:03.097Z,295.70
2024-02-21T09:01:30.082Z,300.45
2024-02-21T09:03:57.861Z,301.50
2024-02-21T09:06:24.348Z,298.40
2024-02-21T09:08:50.756Z,300.88
2024-02-21T09:11:17.328Z,298.67
2024-02-21T09:13:43.936Z,297.98
2024-02-21T09:16:10.529Z,296.05
2024-02-21T09:18:37.110Z,298.50
2024-02-21T09:21:04.034Z,298.77
2024-02-21T09:23:30.479Z,300.73
2024-02-21T09:25:57.256Z,299.25
2024-02-21T09:28:23.889Z,301.95
2024-02-21T09:30:50.438Z,302.13
2024-02-21T09:33:26.990Z,300.45
2024-02-21T09:35:58.574Z,301.63
2024-02-21T09:38:25.042Z,303.38
2024-02-21T09:41:05.007Z,304.17
2024-02-21T09:43:32.093Z,302.55
2024-02-21T09:45:59.411Z,300.10
2024-02-21T09:48:30.804Z,301.05
2024-02-21T09:50:58.612Z,300.23
2024-02-21T09:53:25.746Z,302.48
2024-02-21T09:55:52.935Z,302.77
2024-02-21T09:58:19.603Z,301.90
2024-02-21T10:00:46.078Z,304.23
2024-02-21T10:03:12.562Z,300.95
2024-02-21T10:05:39.371Z,300.13
2024-02-21T10:08:06.150Z,303.10
2024-02-21T10:10:45.530Z,304.33
2024-02-21T10:13:12.718Z,302.92
2024-02-21T10:15:39.303Z,303.70
2024-02-21T10:18:05.931Z,303.75
2024-02-21T10:20:32.481Z,303.05
2024-02-21T10:23:03.652Z,302.98
2024-02-21T10:25:31.975Z,306.52
2024-02-21T10:27:58.430Z,301.75
2024-02-21T10:30:24.846Z,303.25
2024-02-21T10:32:55.013Z,301.27
2024-02-21T10:35:29.049Z,303.38
2024-02-21T10:37:57.161Z,302.95
2024-02-21T10:40:27.633Z,304.73
2024-02-21T10:42:57.911Z,303.52
2024-02-21T10:45:27.868Z,301.00
2024-02-21T10:47:56.821Z,304.58
2024-02-21T10:50:26.350Z,303.95
2024-02-21T10:52:57.237Z,303.27
2024-02-21T10:55:36.420Z,306.33
2024-02-21T10:58:03.430Z,306.40
2024-02-21T11:00:31.278Z,301.52
2024-02-21T11:02:58.752Z,303.77
2024-02-21T11:05:25.724Z,302.88
2024-02-21T11:07:52.907Z,304.23
2024-02-21T11:10:26.262Z,306.08
2024-02-21T11:13:09.289Z,304.77
2024-02-21T11:15:35.800Z,306.30
2024-02-21T11:18:02.551Z,306.85
2024-02-21T11:20:39.104Z,305.48
2024-02-21T11:23:06.286Z,306.73
2024-02-21T11:25:35.112Z,308.02
2024-02-21T11:28:02.641Z,305.95
2024-02-21T11:30:31.293Z,305.60
2024-02-21T11:36:26.047Z,306.60
2024-02-21T11:38:53.281Z,306.00
2024-02-21T11:41:19.985Z,303.10
2024-02-21T11:43:46.491Z,299.85
2024-02-21T11:46:13.842Z,297.20
2024-02-21T11:48:41.671Z,301.98
2024-02-21T11:51:08.250Z,296.00
2024-02-21T11:53:38.344Z,298.63
2024-02-21T11:56:10.800Z,301.25
2024-02-21T11:58:37.416Z,303.83
2024-02-21T12:01:05.632Z,301.88
2024-02-21T12:03:32.170Z,302.63
2024-02-21T12:05:59.988Z,303.90
2024-02-21T12:08:26.654Z,305.95
2024-02-21T12:10:53.301Z,304.30
2024-02-21T12:13:23.650Z,302.50
2024-02-21T12:15:50.191Z,302.45
2024-02-21T12:18:16.834Z,300.65
2024-02-21T12:20:43.535Z,300.17
2024-02-21T12:23:11.331Z,299.30
2024-02-21T12:25:37.877Z,302.10
2024-02-21T12:28:05.030Z,301.77
2024-02-21T12:30:34.068Z,302.65
2024-02-21T12:33:02.680Z,302.15
2024-02-21T12:35:29.188Z,303.42
2024-02-21T12:37:55.719Z,303.92
2024-02-21T12:40:22.465Z,306.65
2024-02-21T12:42:49.337Z,304.42
2024-02-21T12:45:16.955Z,305.88
2024-02-21T12:47:43.677Z,306.17
2024-02-21T12:50:10.569Z,304.83
2024-02-21T12:52:37.226Z,304.98
2024-02-21T12:55:03.956Z,304.85
2024-02-21T12:57:30.376Z,303.80
2024-02-21T12:59:56.809Z,304.80
2024-02-21T13:02:23.411Z,304.63
2024-02-21T13:04:50.223Z,304.52
2024-02-21T13:07:16.783Z,304.75
2024-02-21T13:09:43.202Z,303.90
2024-02-21T13:12:09.740Z,308.55
2024-02-21T13:14:40.059Z,307.90
2024-02-21T13:17:07.109Z,305.65
2024-02-21T13:19:33.750Z,304.02
2024-02-21T13:22:00.332Z,302.50
2024-02-21T13:24:26.819Z,301.58
2024-02-21T13:26:53.195Z,304.67
2024-02-21T13:29:19.650Z,305.45
2024-02-21T13:31:46.458Z,303.77
2024-02-21T13:34:12.997Z,302.48
2024-02-21T13:36:39.380Z,304.60
2024-02-21T13:39:06.091Z,305.65
2024-02-21T13:41:32.890Z,303.13
2024-02-21T13:44:01.491Z,303.92
2024-02-21T13:46:28.180Z,305.45
2024-02-21T13:49:02.380Z,305.23
2024-02-21T13:51:28.859Z,305.58
2024-02-21T13:53:58.364Z,305.70
2024-02-21T13:56:24.750Z,212.10
2024-02-21T13:58:51.400Z,204.63
2024-02-21T14:01:17.913Z,201.30
2024-02-21T14:03:44.433Z,199.63
2024-02-21T14:06:11.056Z,196.75
2024-02-21T14:08:38.788Z,197.27
2024-02-21T14:11:05.323Z,199.68
2024-02-21T14:13:31.831Z,200.20
2024-02-21T14:15:58.350Z,206.32
2024-02-21T14:18:24.830Z,223.80
2024-02-21T14:20:51.398Z,304.45
2024-02-21T14:23:18.023Z,302.63
2024-02-21T14:25:45.120Z,305.17
2024-02-21T14:28:11.850Z,307.95
2024-02-21T14:30:38.288Z,300.85
2024-02-21T14:33:04.951Z,298.20
2024-02-21T14:35:31.567Z,303.13
2024-02-21T14:37:58.932Z,298.55
2024-02-21T14:40:25.554Z,297.95
2024-02-21T14:42:53.569Z,298.63
2024-02-21T14:45:20.003Z,302.45
2024-02-21T14:47:46.626Z,301.83
2024-02-21T14:50:13.143Z,303.42
2024-02-21T14:52:39.758Z,301.85
2024-02-21T14:55:06.865Z,302.88
2024-02-21T14:57:33.343Z,303.38
2024-02-21T15:00:00.804Z,303.23
2024-02-21T15:02:30.222Z,303.35
2024-02-21T15:04:57.148Z,301.42
2024-02-21T15:07:26.287Z,300.60
2024-02-21T15:09:53.336Z,301.08
2024-02-21T15:12:19.832Z,303.48
2024-02-21T15:14:46.331Z,303.58
2024-02-21T15:17:14.004Z,304.27
2024-02-21T15:19:44.700Z,302.77
2024-02-21T15:22:14.854Z,303.40
2024-02-21T15:24:41.952Z,301.83
2024-02-21T15:27:10.558Z,298.95
2024-02-21T15:29:39.741Z,301.83
2024-02-21T15:32:06.547Z,301.55
2024-02-21T15:34:33.329Z,300.75
2024-02-21T15:37:00.825Z,297.80
2024-02-21T15:39:28.150Z,298.17
2024-02-21T15:41:58.023Z,297.23
2024-02-21T15:44:24.749Z,299.40
2024-02-21T15:46:53.031Z,299.20
2024-02-21T15:49:19.653Z,299.95
2024-02-21T15:51:46.244Z,299.35
2024-02-21T15:54:13.714Z,301.88
2024-02-21T15:56:40.946Z,297.35
2024-02-21T15:59:07.425Z,298.33
2024-02-21T16:01:36.254Z,297.88
2024-02-21T16:04:03.018Z,298.25
2024-02-21T16:06:29.556Z,297.20
2024-02-21T16:08:56.027Z,296.30
2024-02-21T16:11:22.685Z,298.23
2024-02-21T16:13:50.634Z,295.98
2024-02-21T16:16:17.620Z,297.52
2024-02-21T16:18:44.568Z,295.02
2024-02-21T16:21:11.876Z,294.27
2024-02-21T16:23:38.297Z,298.30
2024-02-21T16:26:04.866Z,297.35
2024-02-21T16:28:31.344Z,301.15
2024-02-21T16:30:59.093Z,295.50
2024-02-21T16:33:28.619Z,293.90
2024-02-21T16:35:56.091Z,292.67
2024-02-21T16:38:22.649Z,294.42
2024-02-21T16:40:49.917Z,294.13
2024-02-21T16:43:16.413Z,294.40
2024-02-21T16:45:42.812Z,292.92
2024-02-21T16:48:09.487Z,291.88
2024-02-21T16:50:45.560Z,292.48
2024-02-21T16:53:19.574Z,293.38
2024-02-21T16:55:46.057Z,294.90
2024-02-21T16:58:12.602Z,294.67
2024-02-21T17:00:40.438Z,294.27
2024-02-21T17:03:07.294Z,295.27
2024-02-21T17:05:34.102Z,297.77
2024-02-21T17:08:00.749Z,296.48
2024-02-21T17:10:27.260Z,295.67
2024-02-21T17:12:53.724Z,294.98
2024-02-21T17:15:20.139Z,294.58
2024-02-21T17:17:46.675Z,293.80
2024-02-21T17:20:14.473Z,284.33
2024-02-21T17:22:40.936Z,296.33
2024-02-21T17:25:11.778Z,292.45
2024-02-21T17:27:38.583Z,295.20
2024-02-21T17:30:05.627Z,296.40
2024-02-21T17:32:32.028Z,290.73
2024-02-21T17:34:58.549Z,286.60
2024-02-21T17:37:25.039Z,290.17
2024-02-21T17:39:51.476Z,291.63
2024-02-21T17:42:17.870Z,287.55
2024-02-21T17:44:46.608Z,289.70
2024-02-21T17:47:15.814Z,286.25
2024-02-21T17:49:46.628Z,286.77
2024-02-21T17:52:15.097Z,284.80
2024-02-21T17:54:45.274Z,289.25
2024-02-21T17:57:11.875Z,252.93
2024-02-21T17:59:42.689Z,275.63
2024-02-21T18:02:09.212Z,287.42
2024-02-21T18:04:36.158Z,271.70
2024-02-21T18:07:04.152Z,285.63
2024-02-21T18:09:32.041Z,281.08
2024-02-21T18:11:59.299Z,285.90
2024-02-21T18:14:27.898Z,287.73
2024-02-21T18:16:54.399Z,258.30
2024-02-21T18:19:21.210Z,276.90
2024-02-21T18:21:47.657Z,277.48
2024-02-21T18:24:14.073Z,278.10
2024-02-21T18:26:42.352Z,285.30
2024-02-21T18:29:10.311Z,279.40
2024-02-21T18:31:37.578Z,242.45
2024-02-21T18:34:04.495Z,240.57
2024-02-21T18:36:31.141Z,239.80
2024-02-21T18:38:57.567Z,238.57
2024-02-21T18:41:27.290Z,239.63
2024-02-21T18:43:54.299Z,237.43
2024-02-21T18:46:20.798Z,234.00
2024-02-21T18:48:47.303Z,221.95
2024-02-21T18:51:17.539Z,220.73
2024-02-21T18:53:44.083Z,221.77
2024-02-21T18:56:10.555Z,220.00
2024-02-21T18:58:37.066Z,216.15
2024-02-21T19:01:04.638Z,215.43
2024-02-21T19:03:31.394Z,215.55
2024-02-21T19:05:58.067Z,215.80
2024-02-21T19:08:24.571Z,214.30
2024-02-21T19:10:51.083Z,214.88
2024-02-21T19:13:17.537Z,217.32
2024-02-21T19:15:43.940Z,215.43
2024-02-21T19:18:10.452Z,219.30
2024-02-21T19:20:37.024Z,216.13
2024-02-21T19:23:04.843Z,214.10
2024-02-21T19:25:31.363Z,212.40
2024-02-21T19:27:57.933Z,215.27
2024-02-21T19:30:24.544Z,211.85
2024-02-21T19:32:50.978Z,209.68
2024-02-21T19:35:17.521Z,211.63
2024-02-21T19:37:44.014Z,211.70
2024-02-21T19:40:10.683Z,211.93
2024-02-21T19:42:38.686Z,212.68
2024-02-21T19:45:05.696Z,211.63
2024-02-21T19:47:32.148Z,209.10
2024-02-21T19:49:58.832Z,209.80
2024-02-21T19:52:25.371Z,210.80
2024-02-21T19:54:53.833Z,210.65
2024-02-21T19:57:20.381Z,212.25
2024-02-21T19:59:46.784Z,213.48
2024-02-21T20:02:13.361Z,212.38
2024-02-21T20:04:39.901Z,215.02
2024-02-21T20:07:06.832Z,212.90
2024-02-21T20:09:33.255Z,212.00
2024-02-21T20:12:00.724Z,211.65
2024-02-21T20:14:27.336Z,211.45
2024-02-21T20:16:54.262Z,214.15
2024-02-21T20:19:20.800Z,214.23
2024-02-21T20:21:48.154Z,212.27
2024-02-21T20:24:27.609Z,211.60
2024-02-21T20:31:53.755Z,217.75
2024-02-21T20:34:20.260Z,215.88
2024-02-21T20:36:46.691Z,218.35
2024-02-21T20:39:13.881Z,214.25
2024-02-21T20:41:40.693Z,214.75
2024-02-21T20:44:07.323Z,215.57
2024-02-21T20:46:36.725Z,218.23
2024-02-21T20:49:03.197Z,217.88
2024-02-21T20:51:29.653Z,213.98
2024-02-21T20:53:56.120Z,212.95
2024-02-21T20:56:22.811Z,211.55
2024-02-21T20:58:49.370Z,214.20
2024-02-21T21:01:16.042Z,215.85
2024-02-21T21:03:42.525Z,214.55
2024-02-21T21:06:08.966Z,211.05
2024-02-21T21:08:35.358Z,212.25
2024-02-21T21:11:01.951Z,212.40
2024-02-21T21:13:34.289Z,213.48
2024-02-21T21:16:02.342Z,215.70
2024-02-21T21:18:31.248Z,214.27
2024-02-21T21:20:58.591Z,214.40
2024-02-21T21:23:25.343Z,212.60
2024-02-21T21:25:52.221Z,210.30
2024-02-21T21:28:18.705Z,210.75
2024-02-21T21:30:45.516Z,210.77
2024-02-21T21:33:12.032Z,210.27
2024-02-21T21:35:39.272Z,208.10
2024-02-21T21:38:06.114Z,209.63
2024-02-21T21:40:32.879Z,212.50
2024-02-21T21:43:02.980Z,211.05
2024-02-21T21:45:29.369Z,213.48
2024-02-21T21:47:55.870Z,210.38
2024-02-21T21:50:23.836Z,211.27
2024-02-21T21:52:50.324Z,211.35
2024-02-21T21:55:16.877Z,211.85
2024-02-21T21:57:45.106Z,215.43
2024-02-21T22:00:12.230Z,214.88
2024-02-21T22:02:39.107Z,214.77
2024-02-21T22:05:05.848Z,212.15
2024-02-21T22:07:32.225Z,213.93
2024-02-21T22:09:58.616Z,211.82
2024-02-21T22:12:25.122Z,208.82
2024-02-21T22:14:51.499Z,208.93
2024-02-21T22:17:20.180Z,208.77
2024-02-21T22:19:46.900Z,209.63
2024-02-21T22:22:13.443Z,210.02
2024-02-21T22:24:39.855Z,211.25
2024-02-21T22:27:07.031Z,210.13
2024-02-21T22:29:34.354Z,208.30
2024-02-21T22:32:00.935Z,209.85
2024-02-21T22:34:27.607Z,209.82
2024-02-21T22:36:54.481Z,209.88
2024-02-21T22:39:22.473Z,211.00
2024-02-21T22:41:48.853Z,212.63
2024-02-21T22:44:15.413Z,213.45
2024-02-21T22:46:42.113Z,215.00
2024-02-21T22:49:08.543Z,211.20
2024-02-21T22:51:35.035Z,212.82
2024-02-21T22:54:01.532Z,210.55
2024-02-21T22:56:27.941Z,211.82
2024-02-21T22:58:56.059Z,211.32
2024-02-21T23:01:22.537Z,211.50
2024-02-21T23:03:49.121Z,212.43
2024-02-21T23:06:16.053Z,213.60
2024-02-21T23:08:42.448Z,217.13
2024-02-21T23:11:09.140Z,214.32
2024-02-21T23:13:36.231Z,213.02
2024-02-21T23:16:03.204Z,215.98
2024-02-21T23:18:30.208Z,212.40
2024-02-21T23:20:56.981Z,214.07
2024-02-21T23:23:23.380Z,216.88
2024-02-21T23:25:50.274Z,216.50
2024-02-21T23:28:16.715Z,215.55
2024-02-21T23:30:43.145Z,215.93
2024-02-21T23:33:09.600Z,218.23
2024-02-21T23:35:39.141Z,218.50
2024-02-21T23:38:08.244Z,219.95
2024-02-21T23:40:34.773Z,226.15
2024-02-21T23:43:02.079Z,225.10
2024-02-21T23:45:28.590Z,223.52
2024-02-21T23:47:55.209Z,225.82
2024-02-21T23:50:22.212Z,221.45
2024-02-21T23:52:49.657Z,220.65
2024-02-21T23:55:16.092Z,220.82
2024-02-21T23:57:42.503Z,220.68
